Estevan Airport

CYEN · 薩斯喀徹溫, 加拿大

罗盘
风向 的 风向 290° Estevan Airport 8/26
风向 到 风: 24 kt, 阵阵 36 kt, 6 beaufort

23 kt

8 kt
改变
0 ft 1.000 2.000 3.000 4.000 5.000
Cloud Cloud Cloud Cloud Cloud Cloud
BKN 5.000
METAR CYEN 182100Z AUTO 29024G36KT 9SM BKN050 14/02 A2972 RMK SLP077 DENSITY ALT 2500FT

METAR Estevan Airport - CYEN/YEN

Estevan Airport是,加拿大中的中型机场。 该机场位于纬度49,20905和经度-102,96342。 该机场有2条跑道: 8/26 和 15/33. 本场的ICAO机场代码为CYEN。 该机场的IATA代码为YEN。 机场在Winnipeg FIR中。

该航空气象观测是针对Estevan Airport在2024年5月18日 15:00, 当地时间进行的。

机场观察

风向为290°,速度为24 kt。 已测得36 kt的阵风。

可见度为9 mi。

有碎云在5.000 ft的高度。 破损或更高的上限为5.000 ft。

温度和风寒是14 °C。 露点为2 °C,相对湿度为44%。 海平面上的气压为29,72 inHg (QNH)。

白天

今天,太阳从05:03升起,在20:32降落。 这适用于Estevan Airport,世界夏令时可能有所不同。 当地时间与世界标准时间之间的时差为-6 小时。 夏令时目前正在进行中。

公司介绍

我们没有关于这个机场的公司信息。

体会

到Vliegles.nl去找飞行课程,跳伞和其他飞行体验。 浏览页面,了解Estevan Airport附近所有可用的活动。 你也可以使用搜索功能来寻找你所在地附近的特定飞行课程、跳伞或其他飞行体验。

跑道

Id 标题 侧风 逆风 侧风 %
8/26 090°-270° 8-12 kt 23-34 kt 34 %
15/33 160°-340° 18-28 kt 15-23 kt 77 %

逆风成分最大的方向会被突出显示,并用于横风计算。 这并不一定意味着这个方向在使用。

乌云

5.000 ft BKN 碎云

温度 & 天气

温度 14 °C
露点 2 °C
相对湿度 44%
Kp-index 0 (0-9)

评论

SLP077海平面压力为29,76 inHg (29,76 inHg)
DENSITY ALT 2500FT

白天

日出
05:03
中午
12:48
日落
20:32 (4:25)

小工具

你想在你的网站上有一个关于Estevan Airport的当前航空天气(METAR)的小部件吗?

显示HTML代码
报告变更